TAF and METAR

Decoding for American and Canadian METARs and TAFs is not fully implemented.

Could not understand the following METAR

MRLB 192100Z 30011KT 1000 RA FEW020TCU BKN040 30/24 A2976 NOSIG

TAF for Daniel Oduber Quirós International Airport

MRLB 191700Z 1918/2018 27006KT 9999 FEW030 TX32/1919Z TN22/2010Z TEMPO 1920/1924 5000 TSRA FEW020CB BKN030 BECMG 2001/2003 09007KT TEMPO 2010/2015 1000 BR BKN001
Report created 19. okt 19:00

between 19. okt 20:00 - 20. okt 20:00

wind 6 knots from W (270°) visibility > 10km some clouds (~25% cover) at 3000 feet Max temperature 32° expected today at around 21 o'clock Min temperature 22° expected tomorrow at around 12 o'clock

temporarily between 19. okt 22:00 - 19. okt 02:00

visibility 5000 meters thunderstorm and rain some clouds (~25% cover) at 2000 feet of type cumulonimbus broken clouds (~75% cover) at 3000 feet

becoming between 20. okt 03:00 - 20. okt 05:00

wind 7 knots from E (090°)

temporarily between 20. okt 12:00 - 20. okt 17:00

visibility 1000 meters mist broken clouds (~75% cover) at 100 feet
Daniel Oduber Quirós International Airport in Costa Rica at 82m

Latest 5 airports